Time;durP1;ratioP1;P1;durP2;ratioP2;P2;SDS_P1;SDS_P2;PMS_P1;PMS_P2;Temp;Humidity;BMP_temperature;BMP_pressure;BME280_temperature;BME280_humidity;BME280_pressure;Samples;Min_cycle;Max_cycle;Signal;HPM_P1;HPM_P2
2024/01/16 00:00:39;;;;;;;19.10;13.30;;;2.00;99.90;;;;;;5025762;28;20193;-77
2024/01/16 00:03:07;;;;;;;19.33;12.37;;;2.00;99.90;;;;;;5035289;28;20690;-77
2024/01/16 00:05:34;;;;;;;25.23;13.97;;;2.10;99.90;;;;;;5035504;28;20211;-77
2024/01/16 00:08:03;;;;;;;20.97;12.97;;;2.10;99.90;;;;;;5049814;28;20211;-77
2024/01/16 00:10:31;;;;;;;20.07;13.27;;;2.00;99.90;;;;;;5035808;28;20247;-77
2024/01/16 00:12:58;;;;;;;18.03;12.43;;;1.90;99.90;;;;;;5033842;28;20228;-77
2024/01/16 00:15:29;;;;;;;17.33;11.67;;;2.10;99.90;;;;;;5033561;28;20197;-77
2024/01/16 00:17:56;;;;;;;17.83;12.37;;;2.00;99.90;;;;;;5041667;28;20228;-78
2024/01/16 00:20:25;;;;;;;22.43;13.03;;;2.10;99.90;;;;;;5033867;28;20204;-77
2024/01/16 00:22:53;;;;;;;20.07;12.53;;;2.20;99.90;;;;;;5030661;28;20201;-78
2024/01/16 00:25:22;;;;;;;19.50;11.70;;;2.10;99.90;;;;;;5029065;28;20209;-78
2024/01/16 00:27:49;;;;;;;18.10;11.80;;;2.20;99.90;;;;;;5032561;28;20196;-78
2024/01/16 00:30:17;;;;;;;22.17;12.90;;;2.10;99.90;;;;;;5031017;28;20223;-77
2024/01/16 00:32:44;;;;;;;24.30;13.00;;;2.10;99.90;;;;;;5033978;28;20210;-77
2024/01/16 00:35:12;;;;;;;23.50;12.73;;;2.30;99.90;;;;;;5031624;28;20211;-77
2024/01/16 00:37:40;;;;;;;18.97;11.97;;;2.10;99.90;;;;;;5023415;28;20209;-78
2024/01/16 00:40:09;;;;;;;20.60;12.40;;;2.10;99.90;;;;;;5022995;28;20563;-77
2024/01/16 00:42:40;;;;;;;19.47;10.90;;;2.10;99.90;;;;;;5030923;28;20195;-77
2024/01/16 00:45:07;;;;;;;21.03;12.63;;;2.00;99.90;;;;;;5032815;28;20196;-77
2024/01/16 00:47:35;;;;;;;22.37;11.37;;;1.90;99.90;;;;;;5032877;28;20196;-77
2024/01/16 00:50:02;;;;;;;18.03;11.10;;;2.00;99.90;;;;;;5027509;28;20222;-77
2024/01/16 00:52:30;;;;;;;22.20;11.87;;;2.10;99.90;;;;;;5031128;28;20210;-77
2024/01/16 00:54:57;;;;;;;19.93;12.03;;;2.10;99.90;;;;;;5031609;28;20222;-78
2024/01/16 00:57:25;;;;;;;21.03;12.80;;;2.20;99.90;;;;;;5028933;28;20211;-78
2024/01/16 00:59:54;;;;;;;18.43;12.50;;;2.20;99.90;;;;;;5046471;28;20201;-78
2024/01/16 01:02:21;;;;;;;18.33;11.60;;;2.40;99.90;;;;;;5027687;28;20657;-78
2024/01/16 01:04:48;;;;;;;19.57;12.10;;;2.30;99.90;;;;;;5015370;28;20225;-78
2024/01/16 01:07:16;;;;;;;19.97;11.63;;;2.30;99.90;;;;;;5033401;28;20201;-78
2024/01/16 01:09:43;;;;;;;16.23;9.93;;;2.30;99.90;;;;;;5035295;28;20216;-77
2024/01/16 01:12:11;;;;;;;18.67;10.03;;;2.10;99.90;;;;;;5028693;28;20206;-78
2024/01/16 01:14:38;;;;;;;16.30;11.07;;;1.90;99.90;;;;;;5031979;28;20218;-77
2024/01/16 01:17:06;;;;;;;17.20;10.50;;;2.00;99.90;;;;;;5048481;28;20208;-78
2024/01/16 01:19:34;;;;;;;12.97;9.20;;;1.90;99.90;;;;;;5034671;28;20701;-77
2024/01/16 01:22:01;;;;;;;17.50;11.53;;;1.90;99.90;;;;;;5032965;28;20204;-77
2024/01/16 01:24:29;;;;;;;15.93;10.13;;;2.10;99.90;;;;;;5029301;28;20228;-78
2024/01/16 01:26:57;;;;;;;16.30;11.37;;;2.20;99.90;;;;;;5048501;28;20731;-78
2024/01/16 01:29:25;;;;;;;15.93;11.30;;;2.20;99.90;;;;;;5030943;28;20235;-77
2024/01/16 01:31:52;;;;;;;16.00;10.43;;;2.00;99.90;;;;;;5047621;28;20215;-78
2024/01/16 01:34:21;;;;;;;21.50;11.17;;;1.90;99.90;;;;;;5047997;28;20304;-77
2024/01/16 01:36:48;;;;;;;20.23;10.83;;;1.90;99.90;;;;;;5039852;28;20200;-77
2024/01/16 01:39:16;;;;;;;20.17;12.70;;;1.90;99.90;;;;;;5031762;28;20273;-77
2024/01/16 01:41:43;;;;;;;16.23;12.33;;;1.90;99.90;;;;;;5031024;28;20199;-77
2024/01/16 01:44:15;;;;;;;15.80;11.77;;;1.80;99.90;;;;;;5033166;28;20309;-77
2024/01/16 01:46:44;;;;;;;17.77;11.57;;;1.90;99.90;;;;;;5031069;28;20200;-77
2024/01/16 01:49:14;;;;;;;18.77;11.37;;;1.90;99.90;;;;;;5031493;28;20199;-78
2024/01/16 01:51:43;;;;;;;16.97;10.83;;;1.90;99.90;;;;;;5046828;28;20199;-77
2024/01/16 01:54:12;;;;;;;19.30;12.27;;;1.90;99.90;;;;;;5029802;28;20227;-77
2024/01/16 01:56:42;;;;;;;21.70;10.53;;;1.90;99.90;;;;;;5027278;28;20200;-78
2024/01/16 01:59:10;;;;;;;19.27;12.13;;;1.90;99.90;;;;;;5027597;28;20216;-77
2024/01/16 02:01:37;;;;;;;23.13;11.27;;;1.90;99.90;;;;;;5019217;28;20670;-77
2024/01/16 02:04:07;;;;;;;18.70;11.63;;;1.90;99.90;;;;;;5025239;28;20220;-78
2024/01/16 02:06:34;;;;;;;20.20;12.10;;;1.80;99.90;;;;;;5041169;28;20190;-77
2024/01/16 02:09:06;;;;;;;20.47;11.40;;;1.90;99.90;;;;;;5023468;28;20197;-77
2024/01/16 02:11:34;;;;;;;16.67;11.40;;;1.80;99.90;;;;;;5029801;28;20721;-77
2024/01/16 02:14:02;;;;;;;16.97;10.23;;;1.80;99.90;;;;;;5020152;28;20226;-78
2024/01/16 02:16:37;;;;;;;16.40;10.47;;;1.70;99.90;;;;;;5019165;28;20210;-78
2024/01/16 02:19:05;;;;;;;22.47;11.43;;;1.80;99.90;;;;;;5031870;28;20559;-77
2024/01/16 02:21:37;;;;;;;13.13;9.27;;;1.90;99.90;;;;;;5050690;28;20215;-77
2024/01/16 02:24:07;;;;;;;17.50;11.40;;;1.90;99.90;;;;;;5027323;28;20722;-77
2024/01/16 02:26:35;;;;;;;15.87;9.60;;;1.90;99.90;;;;;;5015006;28;20201;-77
2024/01/16 02:29:03;;;;;;;17.53;10.50;;;1.80;99.90;;;;;;5023664;28;20204;-78
2024/01/16 02:31:31;;;;;;;17.67;10.70;;;1.80;99.90;;;;;;5031535;28;20220;-77
2024/01/16 02:33:58;;;;;;;16.43;10.43;;;1.80;99.90;;;;;;5029977;28;20227;-77
2024/01/16 02:36:26;;;;;;;18.30;9.97;;;1.90;99.90;;;;;;5037580;28;20541;-78
2024/01/16 02:38:53;;;;;;;17.00;10.07;;;1.80;99.90;;;;;;5031953;28;20199;-78
2024/01/16 02:41:22;;;;;;;24.87;11.97;;;1.80;99.90;;;;;;5031620;28;20191;-77
2024/01/16 02:43:50;;;;;;;17.70;11.17;;;1.80;99.90;;;;;;5028226;28;20247;-78
2024/01/16 02:46:18;;;;;;;18.67;11.77;;;1.80;99.90;;;;;;5031026;28;20212;-77
2024/01/16 02:48:46;;;;;;;17.70;10.60;;;1.80;99.90;;;;;;5021805;28;20562;-77
2024/01/16 02:51:13;;;;;;;17.17;10.43;;;1.80;99.90;;;;;;5031061;28;20231;-77
2024/01/16 02:53:41;;;;;;;17.60;10.47;;;1.80;99.90;;;;;;5051446;28;20230;-77
2024/01/16 02:56:09;;;;;;;20.67;11.60;;;1.90;99.90;;;;;;5031298;28;20208;-78
2024/01/16 02:58:38;;;;;;;17.07;10.47;;;2.00;99.90;;;;;;5030052;28;20215;-78
2024/01/16 03:01:05;;;;;;;19.30;10.77;;;2.00;99.90;;;;;;5045866;28;20215;-77
2024/01/16 03:03:33;;;;;;;17.20;10.07;;;1.90;99.90;;;;;;5026474;28;20219;-77
2024/01/16 03:06:00;;;;;;;17.17;10.27;;;1.90;99.90;;;;;;5033967;28;20530;-77
2024/01/16 03:08:28;;;;;;;14.27;10.27;;;2.10;99.90;;;;;;5024092;28;20203;-77
2024/01/16 03:10:55;;;;;;;17.10;10.97;;;2.00;99.90;;;;;;5029606;28;20211;-78
2024/01/16 03:13:23;;;;;;;14.93;10.23;;;2.00;99.90;;;;;;5030933;28;20223;-77
2024/01/16 03:15:51;;;;;;;17.00;10.77;;;1.90;99.90;;;;;;5032567;28;20199;-78
2024/01/16 03:18:19;;;;;;;16.27;10.63;;;1.90;99.90;;;;;;5046043;28;20205;-78
2024/01/16 03:20:46;;;;;;;15.40;10.00;;;1.90;99.90;;;;;;5028929;28;20199;-78
2024/01/16 03:23:14;;;;;;;14.77;9.27;;;2.00;99.90;;;;;;5046022;28;20228;-77
2024/01/16 03:25:41;;;;;;;14.33;9.20;;;1.80;99.90;;;;;;5029363;28;21027;-77
2024/01/16 03:28:10;;;;;;;16.73;10.27;;;1.90;99.90;;;;;;5031847;28;20205;-78
2024/01/16 03:30:37;;;;;;;13.93;9.30;;;1.90;99.90;;;;;;5028845;28;20222;-77
2024/01/16 03:33:06;;;;;;;14.90;9.23;;;1.90;99.90;;;;;;5029703;28;20220;-77
2024/01/16 03:35:34;;;;;;;16.17;10.00;;;2.00;99.90;;;;;;5045569;28;20207;-78
2024/01/16 03:38:01;;;;;;;13.33;8.80;;;2.00;99.90;;;;;;5030073;28;20187;-77
2024/01/16 03:40:33;;;;;;;15.60;9.03;;;1.90;99.90;;;;;;5030652;28;20193;-78
2024/01/16 03:43:01;;;;;;;13.40;8.73;;;2.00;99.90;;;;;;5036094;28;20218;-78
2024/01/16 03:45:28;;;;;;;12.73;8.13;;;2.00;99.90;;;;;;5030175;28;20204;-78
2024/01/16 03:47:56;;;;;;;11.50;8.17;;;2.00;99.90;;;;;;5027698;28;20197;-77
2024/01/16 03:50:24;;;;;;;13.70;9.40;;;2.00;99.90;;;;;;5046278;28;20211;-77
2024/01/16 03:52:52;;;;;;;18.10;10.10;;;2.20;99.90;;;;;;5030883;28;20203;-77
2024/01/16 03:55:20;;;;;;;14.27;9.37;;;2.10;99.90;;;;;;5030577;28;20199;-77
2024/01/16 03:57:48;;;;;;;14.23;9.07;;;2.10;99.90;;;;;;5031023;28;20201;-77
2024/01/16 04:00:16;;;;;;;15.17;11.03;;;2.00;99.90;;;;;;5030148;28;20199;-77
2024/01/16 04:02:43;;;;;;;13.43;9.37;;;2.00;99.90;;;;;;5066449;28;20209;-77
2024/01/16 04:05:11;;;;;;;14.10;9.63;;;2.10;99.90;;;;;;5038258;28;20212;-76
2024/01/16 04:07:40;;;;;;;15.53;10.50;;;2.00;99.90;;;;;;5035239;28;20206;-77
2024/01/16 04:10:08;;;;;;;16.27;10.70;;;2.10;99.90;;;;;;5030035;28;20212;-77
2024/01/16 04:12:36;;;;;;;16.13;10.60;;;2.10;99.90;;;;;;5040065;28;20200;-77
2024/01/16 04:15:03;;;;;;;16.73;11.67;;;2.10;99.90;;;;;;5031854;28;20243;-77
2024/01/16 04:17:31;;;;;;;22.17;12.23;;;2.00;99.90;;;;;;5039531;28;20187;-77
2024/01/16 04:19:58;;;;;;;18.07;11.23;;;1.90;99.90;;;;;;5035109;28;20207;-77
2024/01/16 04:22:26;;;;;;;19.67;11.63;;;2.00;99.90;;;;;;5033160;28;20218;-77
2024/01/16 04:24:55;;;;;;;19.87;12.73;;;2.00;99.90;;;;;;5033788;28;20221;-77
2024/01/16 04:27:22;;;;;;;23.17;13.20;;;2.10;99.90;;;;;;5032913;28;20195;-77
2024/01/16 04:29:49;;;;;;;20.97;12.63;;;2.00;99.90;;;;;;5050490;28;20600;-77
2024/01/16 04:32:17;;;;;;;25.13;13.60;;;2.00;99.90;;;;;;5052161;28;20237;-77
2024/01/16 04:34:44;;;;;;;19.43;12.83;;;2.00;99.90;;;;;;5034039;28;20314;-77
2024/01/16 04:37:12;;;;;;;23.13;13.80;;;2.10;99.90;;;;;;5043072;28;20203;-77
2024/01/16 04:39:39;;;;;;;20.60;13.37;;;2.10;99.90;;;;;;5038699;28;20546;-77
2024/01/16 04:42:08;;;;;;;19.60;12.73;;;2.10;99.90;;;;;;5033723;28;20209;-77
2024/01/16 04:44:35;;;;;;;22.47;14.27;;;2.10;99.90;;;;;;5049834;28;20236;-77
2024/01/16 04:47:03;;;;;;;22.93;13.77;;;2.00;99.90;;;;;;5032534;28;20206;-77
2024/01/16 04:49:30;;;;;;;20.23;13.30;;;1.90;99.90;;;;;;5047554;28;20199;-77
2024/01/16 04:51:58;;;;;;;23.20;13.47;;;1.90;99.90;;;;;;5030155;28;20223;-77
2024/01/16 04:54:25;;;;;;;22.13;12.93;;;2.00;99.90;;;;;;5015156;28;20794;-76
2024/01/16 04:56:53;;;;;;;22.63;14.07;;;2.00;99.90;;;;;;5032402;28;20203;-77
2024/01/16 04:59:22;;;;;;;22.47;13.70;;;1.90;99.90;;;;;;5035058;28;20203;-77
2024/01/16 05:01:49;;;;;;;21.90;12.83;;;2.00;99.90;;;;;;5033525;28;20197;-77
2024/01/16 05:04:16;;;;;;;22.67;13.37;;;2.20;99.90;;;;;;5033363;28;20231;-77
2024/01/16 05:06:44;;;;;;;22.07;13.97;;;2.10;99.90;;;;;;5034543;28;20196;-78
2024/01/16 05:09:12;;;;;;;22.43;13.73;;;2.00;99.90;;;;;;5042475;28;20196;-77
2024/01/16 05:11:39;;;;;;;22.43;14.37;;;1.90;99.90;;;;;;5033124;28;20220;-77
2024/01/16 05:14:07;;;;;;;22.90;15.20;;;2.10;99.90;;;;;;5032965;28;20690;-77
2024/01/16 05:16:36;;;;;;;20.53;14.03;;;2.00;99.90;;;;;;5027709;28;20561;-77
2024/01/16 05:19:04;;;;;;;21.70;14.27;;;2.10;99.90;;;;;;5041522;28;20201;-77
2024/01/16 05:21:31;;;;;;;21.40;14.17;;;2.00;99.90;;;;;;5034332;28;20203;-77
2024/01/16 05:23:59;;;;;;;22.20;15.00;;;2.00;99.90;;;;;;5034184;28;20224;-77
2024/01/16 05:26:26;;;;;;;20.57;13.20;;;2.10;99.90;;;;;;5034110;28;20199;-77
2024/01/16 05:28:53;;;;;;;22.70;13.77;;;2.10;99.90;;;;;;5039190;28;20586;-77
2024/01/16 05:31:21;;;;;;;23.13;13.23;;;2.20;99.90;;;;;;5027781;28;20219;-77
2024/01/16 05:33:50;;;;;;;25.17;14.80;;;2.10;99.90;;;;;;5032899;28;20240;-77
2024/01/16 05:36:17;;;;;;;21.57;13.53;;;2.00;99.90;;;;;;5028639;28;20209;-77
2024/01/16 05:38:45;;;;;;;23.00;13.20;;;2.10;99.90;;;;;;5038983;28;20192;-77
2024/01/16 05:41:12;;;;;;;21.43;12.47;;;2.00;99.90;;;;;;5033239;28;20208;-77
2024/01/16 05:43:40;;;;;;;19.10;13.50;;;2.00;99.90;;;;;;5034000;28;20223;-77
2024/01/16 05:46:07;;;;;;;20.20;12.47;;;2.10;99.90;;;;;;5023220;28;20209;-77
2024/01/16 05:48:35;;;;;;;17.70;12.97;;;2.00;99.90;;;;;;5039926;28;20196;-77
2024/01/16 05:51:05;;;;;;;20.27;12.83;;;2.00;99.90;;;;;;5051169;28;20196;-77
2024/01/16 05:53:32;;;;;;;15.27;11.40;;;2.10;99.90;;;;;;5052063;28;20226;-77
2024/01/16 05:56:02;;;;;;;18.53;12.57;;;2.00;99.90;;;;;;5019382;28;20197;-77
2024/01/16 05:58:35;;;;;;;22.50;12.10;;;2.10;99.90;;;;;;5040551;28;20198;-77
2024/01/16 06:01:02;;;;;;;17.60;11.83;;;2.00;99.90;;;;;;5048713;28;20206;-77
2024/01/16 06:03:30;;;;;;;20.20;11.50;;;1.90;99.90;;;;;;5032151;28;20209;-77
2024/01/16 06:05:57;;;;;;;17.70;11.47;;;1.90;99.90;;;;;;5031398;28;20207;-77
2024/01/16 06:08:26;;;;;;;17.00;10.83;;;2.00;99.90;;;;;;5048408;28;20200;-77
2024/01/16 06:10:54;;;;;;;16.50;10.03;;;2.00;99.90;;;;;;5041026;28;20215;-77
2024/01/16 06:13:22;;;;;;;13.70;9.93;;;1.90;99.90;;;;;;5012084;28;20227;-77
2024/01/16 06:15:50;;;;;;;14.83;8.73;;;1.90;99.90;;;;;;5039039;28;20199;-77
2024/01/16 06:18:17;;;;;;;13.90;9.00;;;1.90;99.90;;;;;;5036089;28;20199;-77
2024/01/16 06:20:45;;;;;;;13.97;9.50;;;1.80;99.90;;;;;;5032265;28;20207;-77
2024/01/16 06:23:12;;;;;;;11.03;8.13;;;1.80;99.90;;;;;;5033286;28;20207;-77
2024/01/16 06:25:41;;;;;;;14.07;8.70;;;1.80;99.90;;;;;;5031747;28;20206;-77
2024/01/16 06:28:08;;;;;;;13.53;7.77;;;1.70;99.90;;;;;;5047913;28;20212;-77
2024/01/16 06:30:36;;;;;;;13.03;7.83;;;1.80;99.90;;;;;;5031446;28;20207;-77
2024/01/16 06:33:23;;;;;;;14.00;8.37;;;1.80;99.90;;;;;;5104094;27;20596;-76
2024/01/16 06:35:51;;;;;;;13.60;8.67;;;1.80;99.90;;;;;;5088553;28;20659;-76
2024/01/16 06:38:18;;;;;;;15.80;8.30;;;1.80;99.90;;;;;;5089572;28;20185;-76
2024/01/16 06:40:46;;;;;;;15.00;9.47;;;1.70;99.90;;;;;;5096645;28;20200;-77
2024/01/16 06:43:15;;;;;;;13.10;8.83;;;1.80;99.90;;;;;;5092106;28;20569;-77
2024/01/16 06:45:43;;;;;;;13.03;8.87;;;1.80;99.90;;;;;;5093659;28;20192;-77
2024/01/16 06:48:10;;;;;;;16.33;9.50;;;1.90;99.90;;;;;;5096087;28;20197;-77
2024/01/16 06:50:39;;;;;;;19.43;10.67;;;1.70;99.90;;;;;;5121481;28;20216;-77
2024/01/16 06:53:31;;;;;;;17.80;11.60;;;1.70;99.90;;;;;;5088208;28;20237;-76
2024/01/16 06:55:58;;;;;;;18.73;12.47;;;1.70;99.90;;;;;;5088514;28;20549;-77
2024/01/16 07:02:14;;;;;;;23.17;12.17;;;1.80;99.90;;;;;;5100515;28;20646;-77
2024/01/16 07:04:41;;;;;;;22.43;14.13;;;1.70;99.90;;;;;;5081240;28;20221;-77
2024/01/16 07:07:10;;;;;;;20.73;13.60;;;1.70;99.90;;;;;;5090248;28;20208;-76
2024/01/16 07:09:38;;;;;;;26.33;15.60;;;1.70;99.90;;;;;;5082611;28;20205;-77
2024/01/16 07:12:06;;;;;;;19.90;12.20;;;1.80;99.90;;;;;;5088034;28;20247;-76
2024/01/16 07:14:33;;;;;;;19.23;12.10;;;1.70;99.90;;;;;;5094495;28;20228;-77
2024/01/16 07:17:01;;;;;;;24.10;15.27;;;1.70;99.90;;;;;;5107743;28;20219;-77
2024/01/16 07:19:28;;;;;;;24.93;14.80;;;1.70;99.90;;;;;;5089572;28;20202;-77
2024/01/16 07:26:20;;;;;;;25.80;18.60;;;1.70;99.90;;;;;;5100467;28;20648;-78
2024/01/16 07:28:47;;;;;;;27.60;17.87;;;1.70;99.90;;;;;;5092032;28;20193;-78
2024/01/16 07:31:16;;;;;;;24.57;18.30;;;1.70;99.90;;;;;;5090842;28;20570;-78
2024/01/16 07:33:43;;;;;;;31.67;18.97;;;1.70;99.90;;;;;;5108503;28;20216;-77
2024/01/16 07:36:12;;;;;;;26.53;18.07;;;1.80;99.90;;;;;;5097017;28;20204;-78
2024/01/16 07:38:39;;;;;;;28.20;16.83;;;1.70;99.90;;;;;;5089192;28;20202;-78
2024/01/16 07:41:07;;;;;;;24.43;17.33;;;1.60;99.90;;;;;;5121595;28;20192;-78
2024/01/16 07:43:36;;;;;;;22.63;16.60;;;1.60;99.90;;;;;;5094335;28;20238;-77
2024/01/16 07:46:03;;;;;;;20.73;14.47;;;1.60;99.90;;;;;;5085896;28;20372;-78
2024/01/16 07:48:31;;;;;;;24.43;15.67;;;1.50;99.90;;;;;;5081445;28;20268;-78
2024/01/16 07:50:58;;;;;;;20.57;14.77;;;1.50;99.90;;;;;;5079764;22;20223;-81
2024/01/16 07:53:27;;;;;;;20.60;14.03;;;1.50;99.90;;;;;;5043294;28;20395;-81
2024/01/16 07:55:55;;;;;;;22.77;13.53;;;1.40;99.90;;;;;;5043849;28;20199;-80
2024/01/16 07:58:25;;;;;;;21.40;12.80;;;1.40;99.90;;;;;;5044585;28;20202;-81
2024/01/16 08:00:54;;;;;;;17.30;12.47;;;1.40;99.90;;;;;;5049034;28;20211;-81
2024/01/16 08:03:21;;;;;;;17.63;8.53;;;1.40;99.90;;;;;;5042693;28;20199;-81
2024/01/16 08:05:49;;;;;;;13.40;8.80;;;1.30;99.90;;;;;;5042251;28;20208;-81
2024/01/16 08:08:16;;;;;;;16.97;10.30;;;1.30;99.90;;;;;;5041906;28;20565;-81
2024/01/16 08:10:44;;;;;;;14.57;9.37;;;1.20;99.90;;;;;;5039258;28;20695;-81
2024/01/16 08:13:11;;;;;;;14.30;9.47;;;1.20;99.90;;;;;;5043627;28;20225;-80
2024/01/16 08:15:39;;;;;;;12.57;8.87;;;1.30;99.90;;;;;;5040521;28;20202;-80
2024/01/16 08:18:08;;;;;;;14.63;8.77;;;1.30;99.90;;;;;;5039584;28;20210;-80
2024/01/16 08:20:35;;;;;;;11.97;8.33;;;1.20;99.90;;;;;;5049037;28;20244;-80
2024/01/16 08:23:03;;;;;;;13.03;8.37;;;1.30;99.90;;;;;;5049361;28;20191;-79
2024/01/16 08:25:30;;;;;;;11.57;7.60;;;1.30;99.90;;;;;;5042954;28;20688;-80
2024/01/16 08:27:59;;;;;;;15.50;7.87;;;1.30;99.90;;;;;;5042861;28;20209;-81
2024/01/16 08:30:26;;;;;;;8.33;6.87;;;1.20;99.90;;;;;;5055849;28;20217;-82
2024/01/16 08:32:54;;;;;;;9.37;5.67;;;1.20;99.90;;;;;;5040682;28;20214;-82
2024/01/16 08:35:22;;;;;;;8.17;6.20;;;1.10;99.90;;;;;;5037094;28;20212;-83
2024/01/16 08:37:50;;;;;;;9.50;5.97;;;1.20;99.90;;;;;;5038693;28;20199;-83
2024/01/16 08:40:18;;;;;;;12.47;6.00;;;1.10;99.90;;;;;;5037914;28;20215;-83
2024/01/16 08:42:45;;;;;;;7.70;5.00;;;1.20;99.90;;;;;;5040154;28;20199;-83
2024/01/16 08:45:13;;;;;;;10.93;5.07;;;1.20;99.90;;;;;;5040106;28;20197;-82
2024/01/16 08:47:40;;;;;;;8.50;4.90;;;1.10;99.90;;;;;;5042353;28;20205;-82
2024/01/16 08:50:09;;;;;;;14.07;5.10;;;1.00;99.90;;;;;;5041597;28;20240;-81
2024/01/16 08:52:37;;;;;;;11.00;4.43;;;1.00;99.90;;;;;;5033458;28;20708;-82
2024/01/16 08:55:06;;;;;;;11.53;5.10;;;1.10;99.90;;;;;;5036609;28;20198;-82
2024/01/16 08:57:33;;;;;;;9.33;4.60;;;1.10;99.90;;;;;;5034809;28;20201;-82
2024/01/16 09:00:06;;;;;;;9.30;5.07;;;1.20;99.90;;;;;;5045499;28;20230;-80
2024/01/16 09:02:34;;;;;;;11.00;4.80;;;1.10;99.90;;;;;;5048933;28;20199;-80
2024/01/16 09:05:01;;;;;;;12.03;4.93;;;1.00;99.90;;;;;;5060267;28;20202;-81
2024/01/16 09:07:29;;;;;;;10.47;4.20;;;1.00;99.90;;;;;;5052746;28;20201;-80
2024/01/16 09:09:58;;;;;;;7.97;4.17;;;1.10;99.90;;;;;;5044927;28;20223;-82
2024/01/16 09:12:26;;;;;;;7.03;3.67;;;1.10;99.90;;;;;;5045997;28;20219;-80
2024/01/16 09:14:53;;;;;;;9.87;3.90;;;1.00;99.90;;;;;;5052547;28;20217;-81
2024/01/16 09:17:21;;;;;;;6.77;3.73;;;1.00;99.90;;;;;;5053286;28;20197;-81
2024/01/16 09:19:48;;;;;;;8.07;3.30;;;1.20;99.90;;;;;;5051238;28;20224;-80
2024/01/16 09:22:18;;;;;;;6.63;3.10;;;1.20;99.90;;;;;;5064188;28;20197;-81
2024/01/16 09:24:45;;;;;;;7.53;3.70;;;1.10;99.90;;;;;;5057176;28;20204;-81
2024/01/16 09:27:16;;;;;;;11.90;3.90;;;1.00;99.90;;;;;;5050280;28;20202;-81
2024/01/16 09:29:43;;;;;;;7.20;3.87;;;1.10;99.90;;;;;;5057785;28;20197;-81
2024/01/16 09:32:11;;;;;;;5.43;2.87;;;1.10;99.90;;;;;;5084323;28;20216;-82
2024/01/16 09:34:39;;;;;;;6.03;3.00;;;1.10;99.90;;;;;;5049668;28;20225;-82
2024/01/16 09:37:07;;;;;;;7.93;4.20;;;1.10;99.90;;;;;;5046847;28;20203;-81
2024/01/16 09:39:37;;;;;;;7.33;3.70;;;1.10;99.90;;;;;;5054061;28;20205;-82
2024/01/16 09:42:05;;;;;;;8.67;3.77;;;1.10;99.90;;;;;;5050677;28;20193;-82
2024/01/16 09:44:35;;;;;;;6.60;3.13;;;1.20;99.90;;;;;;5052381;28;20197;-82
2024/01/16 09:47:04;;;;;;;6.17;3.30;;;1.10;99.90;;;;;;5056778;28;20212;-82
2024/01/16 09:49:31;;;;;;;6.00;3.87;;;1.30;99.90;;;;;;5068923;28;20210;-83
2024/01/16 09:52:01;;;;;;;6.40;3.93;;;1.30;99.90;;;;;;5076675;28;20202;-80
2024/01/16 09:54:28;;;;;;;7.37;3.07;;;1.20;99.90;;;;;;5050478;28;20214;-81
2024/01/16 09:56:59;;;;;;;7.60;2.80;;;1.20;99.90;;;;;;5047891;28;20216;-80
2024/01/16 09:59:28;;;;;;;10.23;3.13;;;1.20;99.90;;;;;;5055296;28;20213;-81
2024/01/16 10:01:58;;;;;;;7.87;3.37;;;1.30;99.90;;;;;;5053835;28;20191;-82
2024/01/16 10:04:27;;;;;;;7.70;3.50;;;1.20;99.90;;;;;;5051510;28;20195;-81
2024/01/16 10:06:57;;;;;;;9.23;3.93;;;1.30;99.90;;;;;;5046588;28;20220;-84
2024/01/16 10:09:31;;;;;;;10.57;3.40;;;1.40;99.90;;;;;;5046757;28;20206;-81
2024/01/16 10:12:00;;;;;;;6.23;3.90;;;1.40;99.90;;;;;;5051546;28;20197;-82
2024/01/16 10:14:27;;;;;;;5.53;2.90;;;1.40;99.90;;;;;;5045506;28;20213;-82
2024/01/16 10:17:02;;;;;;;6.27;3.47;;;1.40;99.90;;;;;;5044837;28;20201;-80
2024/01/16 10:19:30;;;;;;;6.40;2.67;;;1.40;99.90;;;;;;5042644;28;20205;-83
2024/01/16 10:22:02;;;;;;;8.73;3.57;;;1.40;99.90;;;;;;5041527;28;20190;-82
2024/01/16 10:24:30;;;;;;;6.83;4.10;;;1.40;99.90;;;;;;5040659;28;20643;-83
2024/01/16 10:27:00;;;;;;;11.17;3.97;;;1.50;99.90;;;;;;5046206;28;20217;-83
2024/01/16 10:29:28;;;;;;;6.73;3.03;;;1.50;99.90;;;;;;5036690;28;20211;-83
2024/01/16 10:31:55;;;;;;;6.43;3.10;;;1.40;99.90;;;;;;5040674;28;20688;-82
2024/01/16 10:34:24;;;;;;;4.23;3.20;;;1.40;99.90;;;;;;5050594;28;20210;-81
2024/01/16 10:37:00;;;;;;;5.60;3.40;;;1.40;99.90;;;;;;5048508;28;20701;-81
2024/01/16 10:39:27;;;;;;;6.87;3.20;;;1.40;99.90;;;;;;5048186;28;20201;-82
2024/01/16 10:41:56;;;;;;;6.53;3.17;;;1.50;99.90;;;;;;5067395;28;20195;-82
2024/01/16 10:44:24;;;;;;;6.47;3.40;;;1.60;99.90;;;;;;5050126;28;20217;-81
2024/01/16 10:46:52;;;;;;;7.17;3.10;;;1.70;99.90;;;;;;5071472;28;20196;-81
2024/01/16 10:49:20;;;;;;;4.40;3.07;;;1.70;99.90;;;;;;5037133;28;20202;-80
2024/01/16 10:51:52;;;;;;;5.77;3.10;;;1.60;99.90;;;;;;5066738;28;20248;-82
2024/01/16 10:54:22;;;;;;;5.93;3.40;;;1.60;99.90;;;;;;5036200;28;20216;-81
2024/01/16 10:56:51;;;;;;;8.23;4.00;;;1.60;99.90;;;;;;5051759;28;20203;-82
2024/01/16 10:59:24;;;;;;;8.60;3.73;;;1.70;99.90;;;;;;5043690;28;20205;-81
2024/01/16 11:01:57;;;;;;;6.33;3.50;;;1.70;99.90;;;;;;5050880;28;20198;-80
2024/01/16 11:04:29;;;;;;;6.53;3.37;;;1.90;99.90;;;;;;5037136;28;20204;-81
2024/01/16 11:06:58;;;;;;;5.70;3.30;;;1.90;99.90;;;;;;5033000;28;20679;-82
2024/01/16 11:09:26;;;;;;;8.80;3.37;;;2.00;99.90;;;;;;5046819;28;20199;-82
2024/01/16 11:11:56;;;;;;;9.00;3.93;;;2.10;99.90;;;;;;5039018;28;21878;-82
2024/01/16 11:14:25;;;;;;;7.27;3.87;;;2.30;99.90;;;;;;5044399;28;20216;-82
2024/01/16 11:16:54;;;;;;;6.67;3.60;;;2.60;99.90;;;;;;5068706;28;20192;-82
2024/01/16 11:19:22;;;;;;;7.27;3.40;;;3.00;99.90;;;;;;5050527;28;20231;-82
2024/01/16 11:21:50;;;;;;;6.60;3.53;;;2.70;99.90;;;;;;5051615;28;20227;-82
2024/01/16 11:24:19;;;;;;;5.00;3.33;;;3.30;99.90;;;;;;5046538;28;20211;-81
2024/01/16 11:26:46;;;;;;;10.37;4.13;;;3.20;99.90;;;;;;5080291;28;20557;-82
2024/01/16 11:29:36;;;;;;;5.37;3.67;;;3.60;99.90;;;;;;5039431;28;20647;-81
2024/01/16 11:32:04;;;;;;;9.57;4.10;;;3.40;99.90;;;;;;5075545;28;20232;-81
2024/01/16 11:34:55;;;;;;;10.87;3.93;;;3.80;99.90;;;;;;5047167;28;20225;-81
2024/01/16 11:37:30;;;;;;;8.23;4.40;;;3.70;99.90;;;;;;5058379;28;20194;-81
2024/01/16 11:40:28;;;;;;;7.40;3.63;;;3.60;99.90;;;;;;5054468;28;20223;-81
2024/01/16 11:42:56;;;;;;;8.80;3.97;;;3.60;99.90;;;;;;5040186;28;20554;-81
2024/01/16 11:45:48;;;;;;;6.23;3.43;;;3.70;99.90;;;;;;5040125;28;20205;-81
2024/01/16 11:48:17;;;;;;;6.17;3.43;;;3.10;99.90;;;;;;5040417;28;20193;-81
2024/01/16 11:50:44;;;;;;;7.73;3.60;;;2.80;99.90;;;;;;5054102;28;20225;-81
2024/01/16 11:53:11;;;;;;;6.00;2.83;;;3.10;99.90;;;;;;5052010;28;20216;-81
2024/01/16 11:55:59;;;;;;;7.47;3.70;;;2.70;99.90;;;;;;5044412;28;20226;-81
2024/01/16 11:58:42;;;;;;;6.03;3.60;;;3.00;99.90;;;;;;5041860;28;20197;-81
2024/01/16 12:01:12;;;;;;;5.97;3.10;;;2.90;99.90;;;;;;5040749;28;20231;-81
2024/01/16 12:03:40;;;;;;;5.97;3.80;;;3.00;99.90;;;;;;5040130;28;20199;-81
2024/01/16 12:06:09;;;;;;;9.63;4.63;;;3.30;99.90;;;;;;5044468;28;20208;-82
2024/01/16 12:08:37;;;;;;;6.93;4.33;;;3.10;99.90;;;;;;5038283;28;20202;-82
2024/01/16 12:11:06;;;;;;;6.23;4.13;;;3.00;99.90;;;;;;5047271;28;20216;-82
2024/01/16 12:13:34;;;;;;;9.00;3.90;;;3.10;99.90;;;;;;5039297;28;20205;-82
2024/01/16 12:16:02;;;;;;;6.70;4.20;;;3.00;99.90;;;;;;5033377;28;20203;-82
2024/01/16 12:18:29;;;;;;;6.67;3.70;;;3.40;99.90;;;;;;5041402;28;20206;-82
2024/01/16 12:20:58;;;;;;;8.83;4.20;;;3.30;99.90;;;;;;5064916;28;20222;-82
2024/01/16 12:23:32;;;;;;;10.40;3.77;;;3.70;99.90;;;;;;5037881;28;20233;-82
2024/01/16 12:26:03;;;;;;;9.70;4.27;;;3.70;99.90;;;;;;5031969;28;20190;-82
2024/01/16 12:28:43;;;;;;;10.20;4.50;;;3.70;99.90;;;;;;5072727;28;20197;-82
2024/01/16 12:31:10;;;;;;;7.27;4.03;;;3.70;99.90;;;;;;5039128;28;20224;-82
2024/01/16 12:33:39;;;;;;;6.57;3.70;;;3.60;99.90;;;;;;5038658;28;20208;-81
2024/01/16 12:36:07;;;;;;;6.73;3.43;;;3.70;99.90;;;;;;5039409;28;20225;-81
2024/01/16 12:38:39;;;;;;;6.20;4.23;;;4.20;99.90;;;;;;5034710;28;20210;-81
2024/01/16 12:41:10;;;;;;;8.93;4.40;;;4.00;99.90;;;;;;5029305;28;20236;-81
2024/01/16 12:43:52;;;;;;;8.07;4.13;;;4.00;99.90;;;;;;5055263;28;20193;-81
2024/01/16 12:46:22;;;;;;;9.20;3.73;;;4.80;99.40;;;;;;5049109;28;20214;-81
2024/01/16 12:48:50;;;;;;;4.83;3.60;;;5.20;96.80;;;;;;5035870;28;20202;-80
2024/01/16 12:51:23;;;;;;;5.10;3.40;;;4.80;96.70;;;;;;5037186;28;20230;-81
2024/01/16 12:53:50;;;;;;;9.73;4.13;;;5.10;97.80;;;;;;5035255;28;20206;-81
2024/01/16 12:56:21;;;;;;;5.77;3.53;;;4.50;97.50;;;;;;5038392;28;20218;-81
2024/01/16 12:58:54;;;;;;;5.90;4.03;;;5.50;96.90;;;;;;5037289;28;20199;-81
2024/01/16 13:01:23;;;;;;;7.40;4.07;;;5.30;96.10;;;;;;5038242;28;20229;-81